Time;durP1;ratioP1;P1;durP2;ratioP2;P2;SDS_P1;SDS_P2;PMS_P1;PMS_P2;Temp;Humidity;BMP_temperature;BMP_pressure;BME280_temperature;BME280_humidity;BME280_pressure;Samples;Min_cycle;Max_cycle;Signal;HPM_P1;HPM_P2
2023/08/26 00:00:52;;;;;;;8.80;6.60;;;26.30;53.30;;;;;;5045789;27;114223;-78
2023/08/26 00:03:19;;;;;;;10.13;5.90;;;26.30;54.30;;;;;;5045799;27;114932;-79
2023/08/26 00:05:48;;;;;;;10.98;6.10;;;26.20;54.80;;;;;;5027889;27;115941;-80
2023/08/26 00:08:15;;;;;;;6.70;5.80;;;25.80;54.70;;;;;;5046406;27;114406;-79
2023/08/26 00:10:42;;;;;;;9.07;5.72;;;25.80;55.20;;;;;;5044305;27;114141;-79
2023/08/26 00:13:09;;;;;;;9.73;6.45;;;25.70;55.00;;;;;;5045532;27;116000;-79
2023/08/26 00:15:36;;;;;;;10.20;6.18;;;25.70;55.60;;;;;;5027777;27;115715;-80
2023/08/26 00:18:08;;;;;;;7.90;5.93;;;25.70;55.20;;;;;;5028722;27;114217;-78
2023/08/26 00:20:35;;;;;;;8.10;6.20;;;25.80;54.80;;;;;;5046616;27;114136;-79
2023/08/26 00:23:02;;;;;;;8.00;5.88;;;25.80;55.10;;;;;;5044871;27;114892;-78
2023/08/26 00:25:30;;;;;;;8.88;5.80;;;25.80;54.90;;;;;;5044136;27;116830;-78
2023/08/26 00:27:57;;;;;;;8.98;6.30;;;25.80;54.90;;;;;;5045256;27;114545;-78
2023/08/26 00:30:25;;;;;;;9.65;6.68;;;25.80;55.30;;;;;;5011654;27;114270;-79
2023/08/26 00:32:52;;;;;;;7.85;5.38;;;25.80;55.30;;;;;;5044370;27;115462;-78
2023/08/26 00:35:19;;;;;;;8.90;5.75;;;25.80;54.70;;;;;;5044009;27;114642;-78
2023/08/26 00:37:46;;;;;;;11.65;6.63;;;25.80;54.50;;;;;;5045805;27;114165;-77
2023/08/26 00:40:13;;;;;;;6.72;5.45;;;25.80;54.70;;;;;;5045384;27;114348;-78
2023/08/26 00:42:40;;;;;;;10.02;5.90;;;25.80;54.30;;;;;;5027207;27;114876;-78
2023/08/26 00:45:07;;;;;;;6.10;4.93;;;25.80;54.60;;;;;;5027100;27;115126;-78
2023/08/26 00:47:37;;;;;;;7.30;5.25;;;25.80;54.10;;;;;;5044443;27;114237;-78
2023/08/26 00:50:05;;;;;;;7.38;5.30;;;25.80;54.20;;;;;;5044569;27;114731;-79
2023/08/26 00:52:32;;;;;;;7.22;5.55;;;25.90;54.30;;;;;;5027500;27;115309;-80
2023/08/26 00:54:59;;;;;;;8.82;6.05;;;26.00;53.80;;;;;;5027089;27;114592;-79
2023/08/26 00:57:26;;;;;;;9.00;7.18;;;26.00;53.70;;;;;;5028226;27;114506;-79
2023/08/26 00:59:53;;;;;;;8.30;6.40;;;26.10;54.50;;;;;;5027914;27;114273;-78
2023/08/26 01:02:20;;;;;;;11.35;6.90;;;26.10;53.70;;;;;;5027155;27;114866;-79
2023/08/26 01:04:47;;;;;;;8.70;5.82;;;26.10;54.40;;;;;;5045237;27;116715;-78
2023/08/26 01:07:14;;;;;;;8.55;5.70;;;26.10;53.60;;;;;;5011087;27;114135;-78
2023/08/26 01:09:41;;;;;;;7.88;5.95;;;26.20;53.40;;;;;;5045731;27;114350;-79
2023/08/26 01:12:41;;;;;;;6.90;5.50;;;26.20;53.30;;;;;;5043160;27;116088;-78
2023/08/26 01:15:10;;;;;;;8.60;6.10;;;26.30;53.20;;;;;;5012438;27;115885;-79
2023/08/26 01:17:37;;;;;;;11.43;7.47;;;26.20;53.20;;;;;;5027782;27;114327;-78
2023/08/26 01:20:05;;;;;;;10.05;6.68;;;26.20;53.90;;;;;;5011461;27;114332;-78
2023/08/26 01:22:33;;;;;;;11.25;7.78;;;26.30;53.50;;;;;;5028496;27;115437;-79
2023/08/26 01:25:01;;;;;;;11.15;6.65;;;26.30;53.60;;;;;;5013730;27;114612;-79
2023/08/26 01:27:28;;;;;;;9.25;6.70;;;26.30;53.20;;;;;;5048125;27;114163;-78
2023/08/26 01:29:56;;;;;;;9.27;6.20;;;26.30;53.50;;;;;;5031677;27;114329;-79
2023/08/26 01:32:43;;;;;;;11.02;6.97;;;26.30;53.10;;;;;;5047503;27;115527;-79
2023/08/26 01:35:18;;;;;;;15.05;7.75;;;26.30;53.40;;;;;;5032365;27;114896;-80
2023/08/26 01:37:45;;;;;;;9.48;6.63;;;26.30;53.60;;;;;;5047463;27;114315;-78
2023/08/26 01:40:12;;;;;;;12.05;7.43;;;26.20;53.20;;;;;;5031120;27;114323;-78
2023/08/26 01:42:40;;;;;;;10.52;7.03;;;26.20;53.60;;;;;;5046960;27;114922;-78
2023/08/26 01:45:07;;;;;;;10.80;7.32;;;26.30;53.30;;;;;;5030497;27;114389;-78
2023/08/26 01:47:34;;;;;;;15.00;10.10;;;26.30;53.60;;;;;;5031135;27;114349;-78
2023/08/26 01:50:02;;;;;;;9.73;7.15;;;26.30;54.40;;;;;;5048083;27;114391;-78
2023/08/26 01:52:29;;;;;;;10.27;7.25;;;26.20;53.30;;;;;;5030153;27;116327;-78
2023/08/26 01:54:56;;;;;;;13.07;8.32;;;26.20;53.20;;;;;;5046831;27;114681;-78
2023/08/26 01:57:23;;;;;;;9.30;6.72;;;26.30;53.40;;;;;;5048800;27;114193;-78
2023/08/26 01:59:51;;;;;;;9.35;6.95;;;26.20;53.30;;;;;;5047157;27;114356;-78
2023/08/26 02:02:18;;;;;;;10.68;7.38;;;26.30;53.30;;;;;;5046125;27;114799;-78
2023/08/26 02:04:47;;;;;;;11.27;7.07;;;26.20;53.50;;;;;;5047692;27;114628;-77
2023/08/26 02:07:16;;;;;;;12.15;7.45;;;26.20;53.20;;;;;;5047291;27;114462;-79
2023/08/26 02:09:43;;;;;;;13.07;8.05;;;26.20;53.40;;;;;;5048822;27;114270;-77
2023/08/26 02:12:11;;;;;;;10.77;6.55;;;26.20;53.50;;;;;;5046038;27;115045;-78
2023/08/26 02:14:38;;;;;;;10.32;6.53;;;26.20;53.30;;;;;;5047436;27;115048;-78
2023/08/26 02:17:05;;;;;;;9.68;6.90;;;26.20;53.30;;;;;;5047305;27;114152;-79
2023/08/26 02:19:32;;;;;;;10.77;6.82;;;26.20;53.20;;;;;;5030636;27;114313;-77
2023/08/26 02:22:00;;;;;;;11.88;6.82;;;26.20;53.20;;;;;;5046225;27;114855;-78
2023/08/26 02:24:29;;;;;;;11.40;6.90;;;26.20;53.30;;;;;;5047295;27;114697;-78
2023/08/26 02:26:56;;;;;;;11.75;7.25;;;26.20;53.30;;;;;;5046126;27;114217;-78
2023/08/26 02:29:23;;;;;;;10.98;7.70;;;26.20;53.30;;;;;;5047106;27;114265;-78
2023/08/26 02:31:50;;;;;;;10.75;7.05;;;26.20;53.80;;;;;;5047102;27;115161;-78
2023/08/26 02:34:17;;;;;;;9.85;7.00;;;26.20;53.30;;;;;;5027796;27;116657;-79
2023/08/26 02:36:44;;;;;;;9.73;6.75;;;26.00;53.70;;;;;;5047627;27;114511;-79
2023/08/26 02:39:11;;;;;;;10.30;7.07;;;25.90;53.70;;;;;;5047864;27;114734;-78
2023/08/26 02:41:38;;;;;;;9.18;6.47;;;25.90;53.80;;;;;;5047091;27;115053;-79
2023/08/26 02:44:05;;;;;;;10.65;6.63;;;26.00;53.70;;;;;;5046213;27;114628;-79
2023/08/26 02:46:32;;;;;;;9.75;6.80;;;26.00;53.70;;;;;;5046637;27;114451;-79
2023/08/26 02:49:01;;;;;;;9.45;6.47;;;26.00;53.70;;;;;;5029756;27;114642;-79
2023/08/26 02:51:28;;;;;;;9.20;7.00;;;26.00;53.60;;;;;;5045998;27;116509;-79
2023/08/26 02:53:55;;;;;;;10.40;7.25;;;26.10;53.60;;;;;;5045761;27;114731;-80
2023/08/26 02:56:22;;;;;;;12.52;7.65;;;26.10;53.60;;;;;;5029768;27;114383;-79
2023/08/26 02:58:49;;;;;;;11.45;7.40;;;26.10;53.50;;;;;;5046438;27;114202;-79
2023/08/26 03:01:17;;;;;;;8.68;6.25;;;26.00;53.90;;;;;;5045663;27;115514;-79
2023/08/26 03:03:45;;;;;;;9.90;7.28;;;26.10;53.60;;;;;;5045528;27;114581;-79
2023/08/26 03:06:12;;;;;;;12.07;7.28;;;26.00;53.70;;;;;;5047588;27;114319;-79
2023/08/26 03:08:40;;;;;;;9.77;7.25;;;26.10;53.60;;;;;;5047731;27;114322;-79
2023/08/26 03:11:07;;;;;;;14.95;8.57;;;26.10;53.60;;;;;;5046613;27;114787;-79
2023/08/26 03:13:35;;;;;;;14.95;8.02;;;26.10;54.30;;;;;;5045379;27;114549;-79
2023/08/26 03:16:07;;;;;;;11.18;7.43;;;26.00;54.00;;;;;;5046802;27;114312;-79
2023/08/26 03:18:34;;;;;;;8.15;7.10;;;26.00;54.10;;;;;;5029770;27;114097;-79
2023/08/26 03:21:05;;;;;;;12.13;7.47;;;25.90;53.80;;;;;;5028385;27;115028;-79
2023/08/26 03:23:33;;;;;;;13.02;7.82;;;26.00;53.90;;;;;;5046443;27;114642;-79
2023/08/26 03:26:00;;;;;;;10.93;7.60;;;26.00;54.10;;;;;;5046098;27;114166;-77
2023/08/26 03:28:28;;;;;;;11.75;7.63;;;26.00;53.90;;;;;;5029464;27;114106;-78
2023/08/26 03:31:05;;;;;;;10.60;7.30;;;26.00;53.90;;;;;;5045023;27;115070;-78
2023/08/26 03:33:34;;;;;;;9.90;7.57;;;26.00;54.00;;;;;;5045448;27;114726;-78
2023/08/26 03:36:05;;;;;;;9.52;7.10;;;26.00;54.00;;;;;;5045696;27;114287;-78
2023/08/26 03:38:33;;;;;;;11.27;6.90;;;25.90;53.90;;;;;;5045585;27;114218;-78
2023/08/26 03:41:04;;;;;;;11.43;7.95;;;25.90;53.80;;;;;;5027725;27;114976;-79
2023/08/26 03:43:33;;;;;;;10.27;6.95;;;26.00;54.20;;;;;;5046083;27;114931;-79
2023/08/26 03:46:00;;;;;;;9.38;7.40;;;26.00;54.00;;;;;;5046459;27;114225;-79
2023/08/26 03:48:27;;;;;;;9.73;7.47;;;26.00;54.00;;;;;;5047223;27;114195;-79
2023/08/26 03:50:56;;;;;;;10.77;7.05;;;25.90;54.00;;;;;;5045491;27;117189;-79
2023/08/26 03:53:23;;;;;;;11.20;7.30;;;26.00;54.00;;;;;;5044410;27;116240;-79
2023/08/26 03:55:50;;;;;;;13.27;7.97;;;26.00;54.10;;;;;;5046788;27;114116;-79
2023/08/26 03:58:18;;;;;;;10.63;7.07;;;26.00;54.30;;;;;;5045309;27;114460;-80
2023/08/26 04:00:45;;;;;;;12.85;7.68;;;26.00;54.00;;;;;;5044624;27;114930;-79
2023/08/26 04:03:12;;;;;;;12.15;7.72;;;26.00;54.20;;;;;;5044730;27;114669;-79
2023/08/26 04:05:40;;;;;;;12.25;8.73;;;26.00;53.90;;;;;;5028048;27;114429;-79
2023/08/26 04:08:07;;;;;;;12.13;7.47;;;26.00;54.40;;;;;;5046484;27;114304;-79
2023/08/26 04:10:34;;;;;;;13.40;9.43;;;26.00;54.10;;;;;;5027841;27;114886;-79
2023/08/26 04:13:16;;;;;;;11.52;7.88;;;26.00;54.90;;;;;;5027538;27;114744;-79
2023/08/26 04:15:44;;;;;;;8.65;7.35;;;26.00;54.30;;;;;;5044855;27;114382;-79
2023/08/26 04:18:13;;;;;;;8.10;6.68;;;25.90;54.20;;;;;;5045227;27;114263;-79
2023/08/26 04:20:42;;;;;;;10.18;7.32;;;26.00;54.00;;;;;;5044360;27;114935;-79
2023/08/26 04:23:09;;;;;;;9.35;6.90;;;26.10;54.10;;;;;;5045776;27;115138;-79
2023/08/26 04:25:37;;;;;;;9.32;6.97;;;26.10;53.90;;;;;;5011761;27;114651;-80
2023/08/26 04:28:05;;;;;;;12.07;7.63;;;26.10;53.80;;;;;;5044885;27;114260;-80
2023/08/26 04:30:32;;;;;;;10.02;6.95;;;26.20;54.00;;;;;;5026530;27;118921;-79
2023/08/26 04:33:00;;;;;;;11.60;7.40;;;26.30;53.60;;;;;;5044299;27;114563;-79
2023/08/26 04:35:28;;;;;;;9.40;6.80;;;26.30;53.80;;;;;;5046741;27;114378;-79
2023/08/26 04:37:56;;;;;;;10.25;7.28;;;26.30;53.40;;;;;;5044401;27;114294;-79
2023/08/26 04:40:25;;;;;;;11.60;7.95;;;26.40;53.50;;;;;;5045156;27;114969;-79
2023/08/26 04:42:55;;;;;;;11.32;7.40;;;26.50;53.90;;;;;;5043433;27;117069;-79
2023/08/26 04:45:24;;;;;;;11.65;7.18;;;26.50;53.80;;;;;;5045045;27;114139;-78
2023/08/26 04:47:51;;;;;;;9.63;7.88;;;26.50;53.40;;;;;;5045772;27;115227;-78
2023/08/26 04:50:19;;;;;;;11.30;8.00;;;26.60;53.90;;;;;;5043996;27;114959;-79
2023/08/26 04:52:49;;;;;;;10.27;6.85;;;26.70;53.70;;;;;;5044046;27;114688;-78
2023/08/26 04:55:16;;;;;;;8.27;6.43;;;26.70;52.70;;;;;;5044261;27;114248;-78
2023/08/26 04:57:43;;;;;;;13.38;7.20;;;26.80;52.80;;;;;;5046228;27;114415;-79
2023/08/26 05:00:16;;;;;;;8.50;7.10;;;26.90;53.20;;;;;;5047255;27;116128;-78
2023/08/26 05:02:46;;;;;;;10.18;7.43;;;26.90;52.80;;;;;;5031091;27;114504;-80
2023/08/26 05:05:13;;;;;;;11.35;8.13;;;26.90;53.40;;;;;;5048152;27;114103;-79
2023/08/26 05:07:40;;;;;;;8.82;6.63;;;26.80;53.40;;;;;;5015249;27;114359;-78
2023/08/26 05:10:07;;;;;;;9.10;7.32;;;26.70;53.00;;;;;;5047524;27;114905;-78
2023/08/26 05:12:34;;;;;;;11.23;7.53;;;26.80;53.40;;;;;;5048832;27;115114;-78
2023/08/26 05:15:04;;;;;;;9.15;7.45;;;26.90;53.10;;;;;;5048027;27;114248;-80
2023/08/26 05:17:31;;;;;;;8.98;7.03;;;27.00;52.70;;;;;;5031669;27;114092;-79
2023/08/26 05:19:58;;;;;;;12.40;8.20;;;27.00;53.20;;;;;;5047553;27;115041;-80
2023/08/26 05:22:25;;;;;;;9.93;6.57;;;27.00;53.00;;;;;;5046977;27;114672;-78
2023/08/26 05:24:52;;;;;;;12.05;7.45;;;27.00;52.20;;;;;;5048034;27;114438;-79
2023/08/26 05:27:22;;;;;;;10.07;7.05;;;27.00;53.20;;;;;;5031021;27;114409;-78
2023/08/26 05:29:51;;;;;;;10.65;7.82;;;27.00;53.10;;;;;;5029712;27;116636;-80
2023/08/26 05:32:18;;;;;;;11.77;7.93;;;26.90;53.90;;;;;;5029852;27;114613;-78
2023/08/26 05:34:47;;;;;;;9.80;7.05;;;26.90;54.00;;;;;;5032933;27;114282;-78
2023/08/26 05:37:17;;;;;;;9.57;7.82;;;26.80;53.10;;;;;;5047905;27;114350;-79
2023/08/26 05:39:44;;;;;;;11.32;8.02;;;26.80;54.70;;;;;;5046988;27;116444;-78
2023/08/26 05:42:11;;;;;;;10.38;7.35;;;26.80;55.10;;;;;;5046874;27;114688;-78
2023/08/26 05:44:39;;;;;;;10.52;7.90;;;26.80;55.10;;;;;;5046950;27;114350;-79
2023/08/26 05:47:06;;;;;;;9.02;6.80;;;26.80;54.60;;;;;;5047725;27;114533;-77
2023/08/26 05:49:34;;;;;;;12.18;7.60;;;26.80;54.20;;;;;;5047551;27;114966;-79
2023/08/26 05:52:02;;;;;;;13.93;8.43;;;26.80;54.00;;;;;;5029768;27;114720;-79
2023/08/26 05:54:29;;;;;;;13.70;8.48;;;26.80;54.70;;;;;;5047277;27;114345;-79
2023/08/26 05:56:56;;;;;;;14.25;7.43;;;26.80;55.10;;;;;;5047560;27;114231;-79
2023/08/26 05:59:26;;;;;;;15.27;8.70;;;26.80;54.70;;;;;;5046141;27;115132;-78
2023/08/26 06:01:54;;;;;;;12.43;8.95;;;26.80;54.30;;;;;;5030013;27;115279;-79
2023/08/26 06:04:23;;;;;;;12.82;8.23;;;26.80;55.10;;;;;;5048947;27;114393;-79
2023/08/26 06:06:50;;;;;;;12.43;8.57;;;26.90;55.10;;;;;;5047373;27;114016;-79
2023/08/26 06:09:17;;;;;;;9.95;8.13;;;26.90;55.00;;;;;;5012201;27;117902;-78
2023/08/26 06:11:44;;;;;;;12.55;8.82;;;27.00;55.60;;;;;;5046215;27;114699;-79
2023/08/26 06:14:13;;;;;;;11.40;7.43;;;27.20;54.70;;;;;;5047306;27;114256;-77
2023/08/26 06:16:39;;;;;;;9.90;8.10;;;27.20;54.20;;;;;;5048023;27;114303;-79
2023/08/26 06:19:07;;;;;;;15.63;8.52;;;27.20;54.90;;;;;;5046136;27;116370;-79
2023/08/26 06:21:35;;;;;;;14.43;8.35;;;27.30;54.20;;;;;;5045923;27;115766;-77
2023/08/26 06:24:03;;;;;;;14.27;9.02;;;27.40;54.60;;;;;;5046756;27;114217;-79
2023/08/26 06:26:30;;;;;;;12.50;8.68;;;27.40;54.80;;;;;;5047490;27;114434;-78
2023/08/26 06:28:57;;;;;;;14.23;7.65;;;27.40;54.30;;;;;;5047437;27;114885;-78
2023/08/26 06:31:25;;;;;;;16.63;9.02;;;27.40;53.70;;;;;;5045538;27;114803;-79
2023/08/26 06:33:54;;;;;;;14.70;8.93;;;27.40;53.40;;;;;;5029414;27;114287;-79
2023/08/26 06:36:21;;;;;;;22.48;11.07;;;27.40;53.40;;;;;;5029778;27;114958;-79
2023/08/26 06:38:51;;;;;;;14.32;9.10;;;27.40;54.40;;;;;;5045861;27;115016;-79
2023/08/26 06:41:18;;;;;;;21.63;13.43;;;27.50;53.80;;;;;;5045802;27;114869;-78
2023/08/26 06:43:45;;;;;;;20.77;12.98;;;27.50;54.10;;;;;;5046534;27;114130;-79
2023/08/26 06:46:20;;;;;;;22.58;15.43;;;27.40;54.10;;;;;;5046771;27;114422;-79
2023/08/26 06:48:48;;;;;;;24.42;14.88;;;27.50;54.90;;;;;;5045701;27;114905;-78
2023/08/26 06:51:16;;;;;;;24.40;14.57;;;27.60;54.80;;;;;;5046104;27;114572;-79
2023/08/26 06:53:43;;;;;;;22.90;13.88;;;27.50;55.30;;;;;;5047499;27;114190;-78
2023/08/26 06:56:10;;;;;;;27.52;14.75;;;27.60;54.40;;;;;;5046402;27;114294;-79
2023/08/26 06:58:37;;;;;;;24.70;13.70;;;27.50;54.50;;;;;;5045772;27;114997;-78
2023/08/26 07:01:04;;;;;;;26.15;14.60;;;27.50;54.80;;;;;;5046690;27;114564;-79
2023/08/26 07:03:31;;;;;;;18.15;11.23;;;27.60;55.70;;;;;;5047675;27;114038;-78
2023/08/26 07:06:02;;;;;;;23.33;14.82;;;27.60;53.60;;;;;;5046218;27;114144;-80
2023/08/26 07:08:29;;;;;;;19.00;14.48;;;27.70;55.40;;;;;;5045453;27;114836;-79
2023/08/26 07:10:56;;;;;;;19.27;12.80;;;27.70;56.00;;;;;;5045391;27;117776;-79
2023/08/26 07:13:23;;;;;;;17.52;13.55;;;27.60;55.60;;;;;;5047499;27;114197;-79
2023/08/26 07:15:50;;;;;;;13.57;8.93;;;27.60;55.50;;;;;;5047728;27;114187;-78
2023/08/26 07:18:17;;;;;;;22.30;11.98;;;27.60;53.30;;;;;;5045097;27;114941;-78
2023/08/26 07:20:46;;;;;;;23.27;14.40;;;27.70;55.10;;;;;;5045856;27;115008;-78
2023/08/26 07:23:13;;;;;;;21.35;14.43;;;27.80;55.70;;;;;;5028662;27;114231;-78
2023/08/26 07:25:43;;;;;;;23.25;14.45;;;27.80;55.60;;;;;;5047365;27;114103;-78
2023/08/26 07:28:10;;;;;;;21.13;12.68;;;27.80;55.70;;;;;;5045140;27;114874;-79
2023/08/26 07:30:38;;;;;;;27.15;16.00;;;27.80;55.20;;;;;;5045969;27;114819;-79
2023/08/26 07:33:07;;;;;;;27.60;14.77;;;27.80;55.60;;;;;;5047217;27;114086;-79
2023/08/26 07:35:35;;;;;;;17.70;11.25;;;27.80;55.80;;;;;;5045886;27;114326;-78
2023/08/26 07:38:03;;;;;;;25.27;14.73;;;27.80;53.40;;;;;;5045117;27;116118;-79
2023/08/26 07:40:30;;;;;;;23.20;14.98;;;27.80;55.70;;;;;;5044978;27;118014;-78
2023/08/26 07:42:58;;;;;;;22.60;15.00;;;27.80;55.90;;;;;;5029430;27;114206;-79
2023/08/26 07:45:25;;;;;;;18.80;13.43;;;27.80;56.00;;;;;;5045917;27;114358;-79
2023/08/26 07:47:52;;;;;;;16.63;11.50;;;27.80;55.40;;;;;;5045805;27;114841;-78
2023/08/26 07:50:22;;;;;;;18.30;13.40;;;27.80;54.80;;;;;;5046207;27;114705;-78
2023/08/26 07:52:49;;;;;;;19.55;13.70;;;27.90;55.70;;;;;;5047068;27;114289;-78
2023/08/26 07:55:16;;;;;;;19.35;13.32;;;27.90;55.80;;;;;;5046863;27;114409;-78
2023/08/26 07:57:43;;;;;;;14.10;11.02;;;28.00;55.80;;;;;;5045351;27;114836;-80
2023/08/26 08:00:13;;;;;;;17.02;12.43;;;28.10;54.80;;;;;;5045746;27;114749;-79
2023/08/26 08:02:41;;;;;;;16.55;12.82;;;28.20;55.30;;;;;;5045611;27;114166;-79
2023/08/26 08:05:11;;;;;;;15.35;12.20;;;28.30;55.30;;;;;;5012642;27;114339;-79
2023/08/26 08:07:38;;;;;;;16.20;11.82;;;28.40;54.80;;;;;;5045698;27;115446;-78
2023/08/26 08:10:08;;;;;;;17.30;12.02;;;28.40;54.40;;;;;;5045680;27;114604;-78
2023/08/26 08:12:35;;;;;;;19.10;12.02;;;28.50;54.20;;;;;;5028401;27;114127;-79
2023/08/26 08:15:06;;;;;;;15.75;11.85;;;28.50;54.40;;;;;;5046651;27;114230;-79
2023/08/26 08:17:33;;;;;;;13.73;11.38;;;28.60;54.00;;;;;;5044419;27;114896;-80
2023/08/26 08:20:00;;;;;;;15.70;11.70;;;28.70;53.70;;;;;;5010942;27;114761;-79
2023/08/26 08:22:43;;;;;;;16.20;11.75;;;28.80;53.70;;;;;;5046250;27;114289;-79
2023/08/26 08:25:11;;;;;;;14.35;12.15;;;28.80;53.70;;;;;;5046486;27;114226;-79
2023/08/26 08:27:38;;;;;;;19.55;14.07;;;28.80;53.40;;;;;;5044207;27;115083;-79
2023/08/26 08:30:08;;;;;;;17.35;11.35;;;28.90;53.60;;;;;;5028487;27;114902;-78
2023/08/26 08:32:36;;;;;;;12.57;10.95;;;29.10;53.50;;;;;;5046569;27;114362;-79
2023/08/26 08:35:03;;;;;;;16.58;11.50;;;29.30;52.40;;;;;;5048521;27;114534;-79
2023/08/26 08:37:31;;;;;;;15.52;11.88;;;29.30;52.00;;;;;;5047895;27;114840;-78
2023/08/26 08:39:59;;;;;;;14.45;11.48;;;29.40;52.60;;;;;;5048721;27;114592;-78
2023/08/26 08:42:26;;;;;;;14.77;10.98;;;29.50;51.80;;;;;;5048698;27;114390;-80
2023/08/26 08:44:53;;;;;;;16.65;11.25;;;29.80;51.60;;;;;;5048806;27;114152;-78
2023/08/26 08:47:20;;;;;;;12.07;10.70;;;29.90;51.10;;;;;;5030757;27;114830;-78
2023/08/26 08:49:47;;;;;;;12.38;10.40;;;29.90;51.30;;;;;;5048840;27;114574;-79
2023/08/26 08:52:14;;;;;;;12.30;9.55;;;30.10;50.10;;;;;;5049690;27;114118;-79
2023/08/26 08:54:41;;;;;;;13.05;9.68;;;30.10;49.70;;;;;;5031623;27;114524;-79
2023/08/26 08:57:08;;;;;;;11.05;9.02;;;30.20;49.20;;;;;;5047585;27;115978;-79
2023/08/26 08:59:36;;;;;;;12.73;9.18;;;30.10;48.90;;;;;;5013990;27;114797;-79
2023/08/26 09:02:04;;;;;;;12.27;8.95;;;30.00;48.80;;;;;;5047887;27;114504;-79
2023/08/26 09:04:31;;;;;;;12.75;10.32;;;30.00;49.00;;;;;;5031515;27;114510;-79
2023/08/26 09:07:00;;;;;;;13.80;10.23;;;30.00;49.30;;;;;;5048355;27;115626;-79
2023/08/26 09:09:27;;;;;;;11.30;10.10;;;30.10;49.80;;;;;;5047486;27;115262;-79
2023/08/26 09:12:06;;;;;;;11.52;9.50;;;30.30;48.80;;;;;;5049361;27;114500;-78
2023/08/26 09:14:33;;;;;;;11.32;10.10;;;30.50;48.10;;;;;;5049381;27;114226;-78
2023/08/26 09:17:16;;;;;;;10.88;8.77;;;30.60;47.30;;;;;;5048280;27;115703;-78
2023/08/26 09:19:59;;;;;;;11.23;8.95;;;30.80;47.50;;;;;;5048623;27;114688;-78
2023/08/26 09:22:30;;;;;;;9.30;8.27;;;30.80;47.60;;;;;;5048117;27;114522;-79
2023/08/26 09:25:01;;;;;;;11.82;8.52;;;30.90;46.50;;;;;;5049170;27;114095;-79
2023/08/26 09:27:32;;;;;;;12.13;8.48;;;30.90;45.80;;;;;;5030037;27;115034;-78
2023/08/26 09:29:59;;;;;;;10.32;8.60;;;30.90;46.20;;;;;;5047038;27;114699;-78
2023/08/26 09:32:37;;;;;;;10.10;8.63;;;30.90;46.30;;;;;;5048004;27;114061;-79
2023/08/26 09:35:11;;;;;;;9.77;8.35;;;31.00;46.50;;;;;;5048004;27;114243;-78
2023/08/26 09:37:39;;;;;;;15.45;11.38;;;30.90;46.00;;;;;;5047186;27;115687;-78
2023/08/26 09:40:07;;;;;;;11.05;9.05;;;30.90;45.80;;;;;;5046697;27;114714;-77
2023/08/26 09:42:34;;;;;;;10.35;8.73;;;30.80;46.40;;;;;;5048927;27;114405;-78
2023/08/26 09:45:02;;;;;;;11.25;9.15;;;30.70;47.00;;;;;;5049359;27;114634;-79
2023/08/26 09:47:29;;;;;;;12.68;9.32;;;30.60;46.90;;;;;;5029844;27;114850;-78
2023/08/26 09:49:56;;;;;;;10.60;9.15;;;30.40;47.10;;;;;;5046280;27;114948;-78
2023/08/26 09:52:23;;;;;;;12.38;9.90;;;30.30;47.90;;;;;;5046793;27;114405;-78
2023/08/26 09:54:52;;;;;;;11.55;9.50;;;30.20;48.50;;;;;;5048799;27;114143;-78
2023/08/26 09:57:19;;;;;;;10.88;9.77;;;30.10;49.00;;;;;;5046564;27;115221;-78
2023/08/26 09:59:46;;;;;;;12.82;8.68;;;29.90;49.50;;;;;;5047384;27;114602;-78
2023/08/26 10:02:25;;;;;;;12.77;8.15;;;29.80;49.20;;;;;;5047298;27;114269;-78
2023/08/26 10:04:55;;;;;;;9.15;7.55;;;29.60;49.40;;;;;;5031133;27;114201;-79
2023/08/26 10:07:27;;;;;;;11.82;7.82;;;29.30;48.10;;;;;;5046148;27;115549;-79
2023/08/26 10:10:04;;;;;;;10.15;6.55;;;29.00;48.60;;;;;;5030641;27;114591;-78
2023/08/26 10:12:39;;;;;;;8.32;6.00;;;28.80;48.10;;;;;;5047312;27;114177;-79
2023/08/26 10:15:10;;;;;;;8.18;5.18;;;28.60;47.50;;;;;;5048423;27;114593;-79
2023/08/26 10:17:37;;;;;;;9.57;5.63;;;28.30;46.80;;;;;;5046578;27;116131;-78
2023/08/26 10:20:05;;;;;;;8.52;6.40;;;28.10;47.00;;;;;;5029178;27;114711;-78
2023/08/26 10:22:32;;;;;;;7.50;5.93;;;27.90;47.90;;;;;;5047054;27;114284;-80
2023/08/26 10:24:59;;;;;;;8.52;6.53;;;27.80;48.00;;;;;;5030503;27;114331;-78
2023/08/26 10:27:27;;;;;;;7.65;5.35;;;27.60;49.10;;;;;;5045890;27;116022;-78
2023/08/26 10:29:55;;;;;;;8.68;6.13;;;27.60;48.80;;;;;;5047209;27;114733;-78
2023/08/26 10:32:23;;;;;;;8.32;6.50;;;27.40;49.60;;;;;;5030381;27;114292;-78
2023/08/26 10:34:57;;;;;;;13.50;8.60;;;27.40;51.10;;;;;;5048445;27;113983;-78
2023/08/26 10:37:28;;;;;;;18.02;10.25;;;27.30;53.20;;;;;;5047051;27;114885;-79
2023/08/26 10:39:56;;;;;;;14.00;8.27;;;27.20;55.20;;;;;;5028936;27;114950;-78
2023/08/26 10:42:23;;;;;;;13.07;8.80;;;26.80;55.90;;;;;;5046197;27;114231;-78
2023/08/26 10:44:55;;;;;;;15.27;10.27;;;26.60;56.70;;;;;;5048007;27;114011;-79
2023/08/26 10:47:44;;;;;;;11.48;8.05;;;26.30;58.40;;;;;;5045795;27;115115;-79
2023/08/26 10:50:19;;;;;;;17.52;9.02;;;26.00;57.60;;;;;;5029395;27;114659;-79
2023/08/26 10:52:58;;;;;;;15.85;8.18;;;25.60;59.50;;;;;;5046578;27;114282;-78
2023/08/26 10:55:44;;;;;;;11.25;7.22;;;25.10;59.40;;;;;;4995865;27;114430;-78
2023/08/26 10:58:16;;;;;;;11.32;6.97;;;24.70;60.10;;;;;;5045544;27;114980;-78
2023/08/26 11:00:51;;;;;;;9.50;7.05;;;24.30;60.60;;;;;;5047127;27;114683;-79
2023/08/26 11:03:19;;;;;;;9.45;7.38;;;24.10;61.60;;;;;;5047788;27;114191;-80
2023/08/26 11:06:03;;;;;;;10.52;7.40;;;24.20;61.00;;;;;;5012930;27;114266;-80
2023/08/26 11:08:30;;;;;;;13.95;7.78;;;24.50;60.80;;;;;;5044401;27;119521;-78
2023/08/26 11:10:57;;;;;;;11.73;7.22;;;24.50;61.60;;;;;;5046391;27;115911;-78
2023/08/26 11:13:26;;;;;;;10.82;6.68;;;24.60;61.60;;;;;;5047497;27;114189;-78
2023/08/26 11:15:56;;;;;;;11.45;7.45;;;24.40;61.60;;;;;;5047441;27;114274;-79
2023/08/26 11:18:25;;;;;;;11.50;7.10;;;24.30;62.10;;;;;;5045192;27;115045;-79
2023/08/26 11:20:54;;;;;;;9.82;6.35;;;24.00;63.00;;;;;;5045953;27;114539;-78
2023/08/26 11:23:27;;;;;;;9.27;5.47;;;23.70;63.50;;;;;;5046006;27;114319;-78
2023/08/26 11:25:55;;;;;;;8.27;5.72;;;23.30;64.30;;;;;;5046352;27;114344;-77
2023/08/26 11:28:22;;;;;;;8.13;5.53;;;22.90;65.00;;;;;;5046471;27;115053;-78
2023/08/26 11:30:52;;;;;;;7.93;6.07;;;22.80;65.10;;;;;;5012430;27;114492;-80
2023/08/26 11:33:20;;;;;;;8.43;5.78;;;22.70;65.40;;;;;;5046704;27;114373;-79
2023/08/26 11:35:51;;;;;;;7.45;5.25;;;22.70;65.70;;;;;;5047129;27;114078;-79
2023/08/26 11:38:38;;;;;;;7.22;5.20;;;22.90;65.90;;;;;;5013273;27;115950;-79
2023/08/26 11:41:08;;;;;;;6.67;4.57;;;23.20;65.00;;;;;;5044659;27;114614;-78
2023/08/26 11:43:35;;;;;;;7.13;4.18;;;23.00;65.10;;;;;;5048385;27;114223;-78
2023/08/26 11:46:05;;;;;;;7.10;3.88;;;22.80;65.90;;;;;;5047177;27;114252;-78
2023/08/26 11:48:40;;;;;;;5.10;3.20;;;22.50;66.40;;;;;;5045816;27;115019;-79
2023/08/26 11:51:07;;;;;;;5.22;3.20;;;22.30;66.90;;;;;;5028170;27;116723;-78
2023/08/26 11:53:37;;;;;;;6.65;4.95;;;22.10;67.40;;;;;;5046982;27;114082;-79
2023/08/26 11:56:07;;;;;;;6.72;4.88;;;22.10;67.40;;;;;;5045478;27;114671;-77
2023/08/26 11:58:39;;;;;;;6.93;4.03;;;22.30;67.10;;;;;;5045294;27;115229;-79
2023/08/26 12:01:07;;;;;;;6.90;4.15;;;22.60;66.90;;;;;;5044323;27;114566;-79
2023/08/26 12:03:41;;;;;;;6.93;4.20;;;22.90;66.00;;;;;;5045584;27;114236;-79
2023/08/26 12:06:13;;;;;;;5.88;4.20;;;23.20;65.50;;;;;;5046520;27;114373;-79
2023/08/26 12:08:40;;;;;;;5.80;4.32;;;23.30;64.50;;;;;;5045404;27;115060;-80
2023/08/26 12:11:07;;;;;;;6.05;4.55;;;23.60;63.70;;;;;;5045488;27;115709;-79
2023/08/26 12:13:41;;;;;;;6.93;4.05;;;23.90;62.80;;;;;;5046667;27;114520;-79
2023/08/26 12:16:09;;;;;;;7.22;4.32;;;24.20;62.50;;;;;;5046907;27;114153;-78
2023/08/26 12:18:40;;;;;;;5.50;4.47;;;24.30;61.40;;;;;;5045554;27;114918;-78
2023/08/26 12:21:07;;;;;;;6.82;4.75;;;24.50;61.10;;;;;;5027263;27;114775;-79
2023/08/26 12:23:36;;;;;;;6.95;4.22;;;24.70;60.80;;;;;;5044948;27;114298;-79
2023/08/26 12:26:11;;;;;;;6.97;3.95;;;24.80;60.30;;;;;;5045248;27;114269;-78
2023/08/26 12:28:40;;;;;;;6.25;4.10;;;24.90;59.60;;;;;;5044289;27;115551;-79
2023/08/26 12:31:07;;;;;;;6.75;4.25;;;25.10;59.10;;;;;;5043971;27;114574;-79
2023/08/26 12:33:34;;;;;;;7.13;4.65;;;25.20;58.90;;;;;;5046405;27;114502;-78
2023/08/26 12:36:16;;;;;;;6.38;4.85;;;25.40;58.30;;;;;;5045281;27;114045;-78